Terminal Aerodrome Forecast
Issued by NWS Boston, MA

Home | Current Version | Previous Version | Text Only | Print | Product List | Glossary On
Versions: 1 2 3 4 5 6 7 8 9 10 11 12 13 14 15 16 17 18
000
FTUS41 KBOX 292327
TAFORH
TAF
KORH 292327Z 3000/3024 09005KT P6SM SKC
     FM300300 18006KT P6SM BKN120
     FM300600 24005KT P6SM BKN100
     FM300800 27005KT P6SM SCT120
     FM301200 33005KT P6SM SCT100
     FM302000 VRB03KT P6SM BKN050=

USA.gov is the U.S. government's official web portal to all federal, state and local government web resources and services.